createdAt,value
2022-12-25T00:01:50.570Z,11.40
2022-12-25T00:04:18.566Z,11.97
2022-12-25T00:06:46.538Z,12.17
2022-12-25T00:09:15.938Z,11.57
2022-12-25T00:11:44.275Z,11.05
2022-12-25T00:14:12.276Z,11.82
2022-12-25T00:16:40.337Z,11.88
2022-12-25T00:19:08.461Z,11.52
2022-12-25T00:21:36.407Z,11.90
2022-12-25T00:24:04.724Z,11.73
2022-12-25T00:26:33.996Z,12.27
2022-12-25T00:29:02.049Z,12.50
2022-12-25T00:31:30.244Z,11.73
2022-12-25T00:33:58.229Z,12.60
2022-12-25T00:36:26.163Z,11.93
2022-12-25T00:38:54.131Z,12.20
2022-12-25T00:41:44.343Z,11.77
2022-12-25T00:44:14.639Z,12.63
2022-12-25T00:46:42.807Z,11.68
2022-12-25T00:49:11.546Z,12.50
2022-12-25T00:51:39.603Z,12.48
2022-12-25T00:54:07.579Z,11.73
2022-12-25T00:56:35.930Z,12.07
2022-12-25T00:59:04.252Z,12.05
2022-12-25T01:01:33.941Z,12.45
2022-12-25T01:04:02.061Z,12.45
2022-12-25T01:06:30.402Z,11.32
2022-12-25T01:09:16.161Z,12.90
2022-12-25T01:11:44.532Z,11.52
2022-12-25T01:14:12.950Z,11.38
2022-12-25T01:16:42.481Z,12.25
2022-12-25T01:19:11.433Z,11.77
2022-12-25T01:21:39.493Z,12.65
2022-12-25T01:24:08.163Z,11.70
2022-12-25T01:26:36.221Z,12.40
2022-12-25T01:29:04.333Z,12.38
2022-12-25T01:31:32.480Z,12.75
2022-12-25T01:34:01.880Z,12.95
2022-12-25T01:36:29.869Z,13.60
2022-12-25T01:38:57.946Z,13.00
2022-12-25T01:41:26.544Z,12.17
2022-12-25T01:44:01.040Z,12.82
2022-12-25T01:46:29.383Z,12.88
2022-12-25T01:49:00.115Z,13.10
2022-12-25T01:51:32.767Z,12.27
2022-12-25T01:54:04.551Z,13.20
2022-12-25T01:56:34.672Z,13.00
2022-12-25T01:59:03.799Z,12.95
2022-12-25T02:01:31.911Z,12.90
2022-12-25T02:04:07.794Z,13.60
2022-12-25T02:06:37.479Z,13.65
2022-12-25T02:09:05.730Z,12.60
2022-12-25T02:11:51.026Z,12.50
2022-12-25T02:14:19.219Z,12.63
2022-12-25T02:16:57.864Z,11.98
2022-12-25T02:19:43.195Z,13.00
2022-12-25T02:22:24.145Z,13.60
2022-12-25T02:24:59.493Z,12.57
2022-12-25T02:27:58.241Z,13.23
2022-12-25T02:30:26.502Z,12.70
2022-12-25T02:33:19.803Z,12.93
2022-12-25T02:35:50.992Z,15.30
2022-12-25T02:38:25.277Z,14.10
2022-12-25T02:40:57.368Z,13.30
2022-12-25T02:43:49.884Z,13.18
2022-12-25T02:46:42.635Z,14.30
2022-12-25T02:49:31.553Z,14.80
2022-12-25T02:52:20.251Z,14.35
2022-12-25T02:55:11.356Z,14.38
2022-12-25T02:58:02.511Z,14.40
2022-12-25T03:00:50.180Z,14.60
2022-12-25T03:03:36.303Z,15.32
2022-12-25T03:06:24.848Z,14.77
2022-12-25T03:09:17.293Z,15.10
2022-12-25T03:11:47.492Z,16.02
2022-12-25T03:14:38.383Z,14.55
2022-12-25T03:17:07.890Z,14.43
2022-12-25T03:19:54.135Z,14.70
2022-12-25T03:22:43.740Z,16.10
2022-12-25T03:25:38.585Z,15.73
2022-12-25T03:28:07.744Z,15.68
2022-12-25T03:31:00.290Z,15.05
2022-12-25T03:33:46.677Z,15.40
2022-12-25T03:36:20.457Z,15.13
2022-12-25T03:39:10.857Z,16.33
2022-12-25T03:42:01.949Z,15.80
2022-12-25T03:44:54.752Z,15.52
2022-12-25T03:47:46.425Z,17.60
2022-12-25T03:50:37.182Z,15.80
2022-12-25T03:53:29.281Z,16.70
2022-12-25T03:56:15.439Z,15.73
2022-12-25T03:59:10.039Z,17.05
2022-12-25T04:01:55.777Z,15.80
2022-12-25T04:04:41.896Z,16.30
2022-12-25T04:07:28.575Z,16.20
2022-12-25T04:10:13.969Z,16.30
2022-12-25T04:12:59.611Z,16.40
2022-12-25T04:15:45.488Z,15.73
2022-12-25T04:18:31.021Z,15.57
2022-12-25T04:21:16.371Z,15.73
2022-12-25T04:24:03.106Z,15.60
2022-12-25T04:26:48.765Z,16.13
2022-12-25T04:29:34.371Z,15.90
2022-12-25T04:32:19.995Z,14.00
2022-12-25T04:35:05.538Z,15.80
2022-12-25T04:37:33.488Z,16.48
2022-12-25T04:40:02.860Z,16.00
2022-12-25T04:42:30.792Z,14.77
2022-12-25T04:44:58.743Z,14.98
2022-12-25T04:47:26.669Z,15.30
2022-12-25T04:49:54.605Z,15.50
2022-12-25T04:52:22.683Z,14.90
2022-12-25T04:54:50.780Z,15.00
2022-12-25T04:57:20.191Z,14.70
2022-12-25T04:59:48.165Z,14.70
2022-12-25T05:02:16.272Z,16.17
2022-12-25T05:04:44.338Z,14.10
2022-12-25T05:07:12.390Z,14.45
2022-12-25T05:09:41.804Z,13.57
2022-12-25T05:12:10.254Z,14.23
2022-12-25T05:14:39.998Z,13.60
2022-12-25T05:17:08.867Z,14.85
2022-12-25T05:19:36.875Z,12.88
2022-12-25T05:22:04.823Z,12.25
2022-12-25T05:24:32.899Z,12.60
2022-12-25T05:27:00.864Z,13.02
2022-12-25T05:29:28.946Z,13.23
2022-12-25T05:31:58.324Z,11.93
2022-12-25T05:34:26.429Z,12.00
2022-12-25T05:36:54.523Z,11.63
2022-12-25T05:39:22.536Z,11.50
2022-12-25T05:41:50.559Z,12.50
2022-12-25T05:44:18.656Z,11.90
2022-12-25T05:46:46.740Z,10.68
2022-12-25T05:49:16.093Z,10.88
2022-12-25T05:51:44.108Z,11.05
2022-12-25T05:54:12.098Z,10.45
2022-12-25T05:56:40.045Z,10.75
2022-12-25T05:59:07.998Z,10.30
2022-12-25T06:01:36.032Z,9.50
2022-12-25T06:04:10.168Z,9.80
2022-12-25T06:06:42.148Z,10.73
2022-12-25T06:09:12.194Z,8.48
2022-12-25T06:11:40.175Z,9.45
2022-12-25T06:14:08.524Z,9.45
2022-12-25T06:16:38.458Z,8.90
2022-12-25T06:19:07.069Z,9.00
2022-12-25T06:21:35.209Z,8.60
2022-12-25T06:24:04.877Z,9.30
2022-12-25T06:26:32.962Z,7.80
2022-12-25T06:29:00.953Z,9.52
2022-12-25T06:31:29.234Z,9.00
2022-12-25T06:33:57.506Z,8.82
2022-12-25T06:36:27.698Z,8.65
2022-12-25T06:38:56.723Z,8.23
2022-12-25T06:41:29.115Z,9.70
2022-12-25T06:43:58.969Z,8.90
2022-12-25T06:46:29.045Z,8.45
2022-12-25T06:48:58.135Z,8.60
2022-12-25T06:51:27.909Z,7.43
2022-12-25T06:53:56.911Z,8.57
2022-12-25T06:56:29.245Z,9.83
2022-12-25T06:58:59.059Z,8.63
2022-12-25T07:01:29.935Z,9.45
2022-12-25T07:03:59.568Z,8.90
2022-12-25T07:06:27.773Z,8.77
2022-12-25T07:08:55.813Z,9.38
2022-12-25T07:11:24.596Z,9.13
2022-12-25T07:13:54.094Z,10.20
2022-12-25T07:16:22.151Z,9.07
2022-12-25T07:18:50.133Z,9.57
2022-12-25T07:21:20.578Z,10.83
2022-12-25T07:23:50.680Z,10.02
2022-12-25T07:26:18.722Z,9.93
2022-12-25T07:28:46.881Z,10.10
2022-12-25T07:31:18.570Z,9.80
2022-12-25T07:33:46.827Z,10.07
2022-12-25T07:36:15.643Z,11.00
2022-12-25T07:38:43.875Z,9.98
2022-12-25T07:41:13.170Z,10.45
2022-12-25T07:43:41.236Z,11.40
2022-12-25T07:46:09.626Z,10.90
2022-12-25T07:48:39.240Z,11.43
2022-12-25T07:51:09.208Z,11.20
2022-12-25T07:53:37.679Z,11.63
2022-12-25T07:56:07.986Z,11.00
2022-12-25T07:58:36.414Z,11.23
2022-12-25T08:01:06.249Z,11.20
2022-12-25T08:03:35.875Z,11.85
2022-12-25T08:06:06.768Z,10.80
2022-12-25T08:08:35.069Z,11.80
2022-12-25T08:11:03.404Z,12.25
2022-12-25T08:13:32.025Z,13.05
2022-12-25T08:16:00.424Z,11.68
2022-12-25T08:18:32.731Z,11.90
2022-12-25T08:21:06.100Z,11.90
2022-12-25T08:23:35.156Z,12.60
2022-12-25T08:26:05.305Z,13.27
2022-12-25T08:28:35.038Z,11.68
2022-12-25T08:31:07.957Z,13.23
2022-12-25T08:33:36.934Z,11.98
2022-12-25T08:36:08.521Z,13.90
2022-12-25T08:38:36.712Z,13.43
2022-12-25T08:41:04.935Z,13.07
2022-12-25T08:43:33.013Z,12.27
2022-12-25T08:46:01.092Z,12.20
2022-12-25T08:48:29.443Z,11.68
2022-12-25T08:50:58.181Z,11.80
2022-12-25T08:53:27.595Z,12.50
2022-12-25T08:55:59.624Z,10.60
2022-12-25T08:58:28.401Z,10.40
2022-12-25T09:00:57.053Z,10.57
2022-12-25T09:03:25.407Z,10.07
2022-12-25T09:05:54.015Z,10.82
2022-12-25T09:08:22.773Z,9.98
2022-12-25T09:10:52.116Z,10.13
2022-12-25T09:13:20.155Z,8.55
2022-12-25T09:15:48.251Z,9.10
2022-12-25T09:18:16.207Z,9.40
2022-12-25T09:20:44.229Z,9.15
2022-12-25T09:23:14.328Z,8.88
2022-12-25T09:25:42.517Z,7.95
2022-12-25T09:28:11.813Z,7.15
2022-12-25T09:30:39.801Z,8.15
2022-12-25T09:33:08.112Z,8.15
2022-12-25T09:35:36.344Z,7.43
2022-12-25T09:38:04.415Z,7.60
2022-12-25T09:40:33.306Z,6.70
2022-12-25T09:43:03.135Z,7.60
2022-12-25T09:45:37.340Z,7.32
2022-12-25T09:48:06.191Z,6.70
2022-12-25T09:50:41.780Z,7.15
2022-12-25T09:53:16.373Z,6.57
2022-12-25T09:55:50.382Z,6.65
2022-12-25T09:58:18.380Z,6.20
2022-12-25T10:00:55.062Z,6.57
2022-12-25T10:03:48.819Z,6.53
2022-12-25T10:06:21.915Z,6.60
2022-12-25T10:09:13.931Z,6.53
2022-12-25T10:12:08.774Z,6.90
2022-12-25T10:14:43.146Z,6.45
2022-12-25T10:17:31.831Z,6.80
2022-12-25T10:20:06.459Z,6.30
2022-12-25T10:22:38.886Z,7.70
2022-12-25T10:25:12.500Z,6.82
2022-12-25T10:27:42.753Z,7.00
2022-12-25T10:30:17.347Z,6.90
2022-12-25T10:32:47.717Z,6.32
2022-12-25T10:35:17.832Z,7.40
2022-12-25T10:37:49.584Z,6.70
2022-12-25T10:40:30.970Z,7.10
2022-12-25T10:43:08.550Z,7.32
2022-12-25T10:45:45.158Z,7.68
2022-12-25T10:48:23.778Z,7.47
2022-12-25T10:50:51.820Z,8.05
2022-12-25T10:53:22.154Z,7.70
2022-12-25T10:55:58.645Z,6.90
2022-12-25T10:58:26.962Z,7.50
2022-12-25T11:00:59.305Z,7.20
2022-12-25T11:03:31.917Z,7.18
2022-12-25T11:06:00.289Z,7.32
2022-12-25T11:08:30.347Z,7.40
2022-12-25T11:10:59.793Z,7.47
2022-12-25T11:13:30.245Z,6.93
2022-12-25T11:16:07.175Z,7.40
2022-12-25T11:18:46.425Z,6.97
2022-12-25T11:21:19.348Z,7.75
2022-12-25T11:23:49.631Z,7.20
2022-12-25T11:26:19.051Z,6.77
2022-12-25T11:28:49.877Z,7.50
2022-12-25T11:31:20.518Z,8.40
2022-12-25T11:33:54.587Z,7.22
2022-12-25T11:36:30.977Z,7.63
2022-12-25T11:39:06.248Z,7.80
2022-12-25T11:41:37.492Z,8.02
2022-12-25T11:44:20.013Z,6.82
2022-12-25T11:46:52.256Z,7.38
2022-12-25T11:49:23.083Z,7.32
2022-12-25T11:51:56.508Z,8.45
2022-12-25T11:54:28.991Z,7.18
2022-12-25T11:56:59.659Z,7.30
2022-12-25T11:59:32.952Z,7.40
2022-12-25T12:02:04.456Z,7.27
2022-12-25T12:04:42.675Z,7.35
2022-12-25T12:07:22.795Z,7.78
2022-12-25T12:09:57.990Z,7.68
2022-12-25T12:12:33.369Z,8.20
2022-12-25T12:15:08.228Z,8.02
2022-12-25T12:17:36.536Z,8.30
2022-12-25T12:20:14.655Z,9.60
2022-12-25T12:22:51.283Z,8.00
2022-12-25T12:25:20.092Z,8.10
2022-12-25T12:27:59.804Z,8.77
2022-12-25T12:30:34.574Z,8.98
2022-12-25T12:33:04.992Z,9.43
2022-12-25T12:35:37.199Z,9.07
2022-12-25T12:38:08.752Z,8.65
2022-12-25T12:40:39.167Z,8.80
2022-12-25T12:43:23.789Z,9.00
2022-12-25T12:45:57.997Z,9.07
2022-12-25T12:48:28.494Z,8.30
2022-12-25T12:51:06.179Z,8.30
2022-12-25T12:53:35.251Z,8.27
2022-12-25T12:56:18.161Z,9.05
2022-12-25T12:58:50.742Z,9.68
2022-12-25T13:01:41.073Z,8.40
2022-12-25T13:04:31.350Z,8.63
2022-12-25T13:07:11.989Z,8.60
2022-12-25T13:09:56.163Z,9.48
2022-12-25T13:12:25.144Z,9.00
2022-12-25T13:14:53.190Z,9.00
2022-12-25T13:17:25.605Z,8.80
2022-12-25T13:19:56.478Z,9.57
2022-12-25T13:22:27.574Z,9.30
2022-12-25T13:25:00.369Z,9.50
2022-12-25T13:27:30.476Z,11.05
2022-12-25T13:29:59.386Z,10.60
2022-12-25T13:32:30.608Z,11.63
2022-12-25T13:35:00.522Z,12.90
2022-12-25T13:37:32.148Z,13.20
2022-12-25T13:40:02.100Z,12.63
2022-12-25T13:42:31.242Z,12.40
2022-12-25T13:45:01.159Z,13.05
2022-12-25T13:47:34.409Z,11.38
2022-12-25T13:50:15.889Z,12.00
2022-12-25T13:52:45.210Z,11.63
2022-12-25T13:55:15.215Z,11.70
2022-12-25T13:57:46.724Z,12.20
2022-12-25T14:00:21.488Z,11.32
2022-12-25T14:02:50.795Z,10.85
2022-12-25T14:05:28.588Z,12.00
2022-12-25T14:08:00.150Z,10.45
2022-12-25T14:10:31.768Z,10.83
2022-12-25T14:13:03.166Z,11.18
2022-12-25T14:15:33.580Z,9.43
2022-12-25T14:18:01.809Z,10.20
2022-12-25T14:20:34.040Z,10.57
2022-12-25T14:23:03.601Z,10.60
2022-12-25T14:25:34.820Z,10.50
2022-12-25T14:28:08.684Z,9.60
2022-12-25T14:30:37.515Z,10.13
2022-12-25T14:33:07.598Z,9.23
2022-12-25T14:35:35.957Z,10.10
2022-12-25T14:38:06.924Z,11.60
2022-12-25T14:40:36.062Z,10.13
2022-12-25T14:43:07.609Z,9.80
2022-12-25T14:45:38.585Z,10.07
2022-12-25T14:48:24.421Z,11.30
2022-12-25T14:50:58.859Z,10.73
2022-12-25T14:53:35.447Z,11.65
2022-12-25T14:56:03.876Z,11.43
2022-12-25T14:58:35.642Z,11.57
2022-12-25T15:01:05.949Z,10.40
2022-12-25T15:03:37.775Z,10.57
2022-12-25T15:06:07.734Z,10.75
2022-12-25T15:08:37.129Z,9.60
2022-12-25T15:11:06.201Z,11.05
2022-12-25T15:13:34.377Z,12.27
2022-12-25T15:16:07.240Z,11.20
2022-12-25T15:18:39.821Z,10.50
2022-12-25T15:21:08.345Z,10.60
2022-12-25T15:23:37.667Z,10.70
2022-12-25T15:26:05.847Z,11.15
2022-12-25T15:28:33.845Z,11.03
2022-12-25T15:31:01.818Z,10.60
2022-12-25T15:33:29.815Z,11.07
2022-12-25T15:35:57.747Z,11.73
2022-12-25T15:38:25.657Z,11.23
2022-12-25T15:40:55.079Z,12.43
2022-12-25T15:43:40.356Z,12.70
2022-12-25T15:46:10.395Z,14.23
2022-12-25T15:48:38.533Z,14.50
2022-12-25T15:51:06.790Z,14.82
2022-12-25T15:53:34.731Z,15.15
2022-12-25T15:56:04.059Z,13.82
2022-12-25T15:58:32.067Z,14.68
2022-12-25T16:01:00.087Z,13.87
2022-12-25T16:03:28.065Z,13.93
2022-12-25T16:05:56.176Z,14.32
2022-12-25T16:08:24.520Z,12.23
2022-12-25T16:10:53.873Z,14.20
2022-12-25T16:13:24.383Z,13.10
2022-12-25T16:15:52.400Z,14.40
2022-12-25T16:18:21.221Z,13.60
2022-12-25T16:20:49.242Z,13.43
2022-12-25T16:23:17.307Z,13.40
2022-12-25T16:25:45.343Z,12.97
2022-12-25T16:28:13.352Z,13.63
2022-12-25T16:30:43.190Z,13.53
2022-12-25T16:33:11.953Z,14.13
2022-12-25T16:35:39.978Z,13.77
2022-12-25T16:38:08.219Z,15.02
2022-12-25T16:40:36.297Z,13.55
2022-12-25T16:43:04.329Z,14.00
2022-12-25T16:45:32.303Z,13.25
2022-12-25T16:48:01.565Z,14.23
2022-12-25T16:50:29.543Z,13.40
2022-12-25T16:52:57.455Z,13.73
2022-12-25T16:55:30.001Z,15.43
2022-12-25T16:57:58.509Z,14.20
2022-12-25T17:00:26.835Z,12.60
2022-12-25T17:02:56.950Z,14.70
2022-12-25T17:05:26.466Z,14.70
2022-12-25T17:07:54.417Z,13.85
2022-12-25T17:10:22.746Z,14.45
2022-12-25T17:12:50.736Z,14.60
2022-12-25T17:15:18.831Z,14.40
2022-12-25T17:17:46.771Z,15.47
2022-12-25T17:20:14.731Z,16.07
2022-12-25T17:22:44.085Z,15.65
2022-12-25T17:25:12.348Z,15.63
2022-12-25T17:27:40.339Z,15.30
2022-12-25T17:30:10.192Z,17.25
2022-12-25T17:32:38.157Z,16.20
2022-12-25T17:35:06.841Z,16.23
2022-12-25T17:37:34.880Z,15.95
2022-12-25T17:40:04.320Z,16.95
2022-12-25T17:42:32.411Z,16.77
2022-12-25T17:45:00.414Z,16.10
2022-12-25T17:47:30.290Z,14.93
2022-12-25T17:49:58.264Z,16.23
2022-12-25T17:52:26.267Z,15.03
2022-12-25T17:54:54.184Z,15.30
2022-12-25T17:57:23.511Z,17.25
2022-12-25T17:59:51.527Z,14.63
2022-12-25T18:02:21.396Z,15.70
2022-12-25T18:04:49.601Z,17.03
2022-12-25T18:07:17.550Z,16.88
2022-12-25T18:09:45.568Z,23.33
2022-12-25T18:12:13.605Z,27.98
2022-12-25T18:14:42.965Z,26.00
2022-12-25T18:17:11.082Z,32.80
2022-12-25T18:19:39.068Z,35.67
2022-12-25T18:22:07.072Z,33.72
2022-12-25T18:24:35.056Z,30.92
2022-12-25T18:27:03.079Z,30.67
2022-12-25T18:29:31.053Z,29.70
2022-12-25T18:32:00.550Z,28.48
2022-12-25T18:34:28.580Z,27.40
2022-12-25T18:37:03.046Z,28.40
2022-12-25T18:39:31.281Z,25.40
2022-12-25T18:42:17.142Z,25.40
2022-12-25T18:44:45.166Z,24.40
2022-12-25T18:47:14.521Z,23.67
2022-12-25T18:49:42.562Z,23.35
2022-12-25T18:52:48.461Z,23.13
2022-12-25T18:54:58.479Z,22.05
2022-12-25T18:57:26.685Z,21.30
2022-12-25T18:59:54.682Z,21.70
2022-12-25T19:02:24.127Z,20.77
2022-12-25T19:04:52.468Z,21.08
2022-12-25T19:07:22.696Z,20.15
2022-12-25T19:09:51.160Z,19.23
2022-12-25T19:12:19.208Z,21.05
2022-12-25T19:14:48.522Z,21.25
2022-12-25T19:17:16.944Z,19.88
2022-12-25T19:19:46.528Z,20.33
2022-12-25T19:22:14.515Z,19.65
2022-12-25T19:24:42.641Z,19.00
2022-12-25T19:27:10.645Z,20.20
2022-12-25T19:29:38.676Z,20.33
2022-12-25T19:32:07.041Z,19.60
2022-12-25T19:34:35.090Z,18.67
2022-12-25T19:37:04.718Z,18.90
2022-12-25T19:39:32.685Z,20.40
2022-12-25T19:42:00.691Z,17.70
2022-12-25T19:44:28.687Z,18.08
2022-12-25T19:46:56.865Z,17.75
2022-12-25T19:49:24.938Z,18.52
2022-12-25T19:51:52.847Z,17.52
2022-12-25T19:54:22.164Z,19.17
2022-12-25T19:56:50.585Z,18.42
2022-12-25T19:59:18.602Z,19.15
2022-12-25T20:01:46.799Z,19.90
2022-12-25T20:04:17.133Z,18.60
2022-12-25T20:06:45.851Z,19.33
2022-12-25T20:09:15.723Z,18.33
2022-12-25T20:11:45.150Z,17.75
2022-12-25T20:14:16.081Z,18.90
2022-12-25T20:16:44.983Z,17.73
2022-12-25T20:19:14.088Z,17.30
2022-12-25T20:21:42.157Z,17.75
2022-12-25T20:24:11.223Z,17.20
2022-12-25T20:26:40.011Z,16.63
2022-12-25T20:29:09.378Z,15.57
2022-12-25T20:31:37.619Z,14.80
2022-12-25T20:34:07.445Z,14.13
2022-12-25T20:36:37.592Z,15.77
2022-12-25T20:39:06.364Z,15.50
2022-12-25T20:41:34.403Z,15.23
2022-12-25T20:44:04.202Z,14.57
2022-12-25T20:46:33.669Z,14.65
2022-12-25T20:49:03.094Z,17.67
2022-12-25T20:51:31.176Z,18.20
2022-12-25T20:53:59.179Z,16.50
2022-12-25T20:56:28.956Z,18.98
2022-12-25T20:58:58.431Z,18.92
2022-12-25T21:01:27.315Z,19.05
2022-12-25T21:03:57.646Z,18.50
2022-12-25T21:06:26.106Z,18.30
2022-12-25T21:08:54.201Z,18.17
2022-12-25T21:11:22.431Z,16.83
2022-12-25T21:13:50.665Z,18.70
2022-12-25T21:16:21.582Z,20.67
2022-12-25T21:18:50.555Z,20.50
2022-12-25T21:21:20.878Z,19.52
2022-12-25T21:23:48.827Z,20.50
2022-12-25T21:26:19.479Z,18.03
2022-12-25T21:28:47.614Z,20.75
2022-12-25T21:31:15.732Z,20.35
2022-12-25T21:33:52.130Z,20.98
2022-12-25T21:36:24.272Z,18.38
2022-12-25T21:38:57.883Z,20.30
2022-12-25T21:41:26.843Z,22.10
2022-12-25T21:43:55.688Z,21.50
2022-12-25T21:46:23.889Z,19.13
2022-12-25T21:48:52.039Z,20.90
2022-12-25T21:51:40.577Z,19.15
2022-12-25T21:54:09.307Z,20.52
2022-12-25T21:56:44.166Z,20.30
2022-12-25T21:59:14.665Z,20.63
2022-12-25T22:01:42.941Z,20.48
2022-12-25T22:04:11.560Z,20.58
2022-12-25T22:06:58.805Z,20.13
2022-12-25T22:09:26.896Z,20.05
2022-12-25T22:12:12.137Z,19.73
2022-12-25T22:14:56.980Z,20.13
2022-12-25T22:17:44.793Z,19.35
2022-12-25T22:20:15.582Z,19.23
2022-12-25T22:22:45.259Z,19.20
2022-12-25T22:25:14.544Z,18.38
2022-12-25T22:27:44.189Z,19.38
2022-12-25T22:30:14.464Z,17.73
2022-12-25T22:32:42.783Z,18.20
2022-12-25T22:35:12.469Z,18.43
2022-12-25T22:37:40.872Z,19.63
2022-12-25T22:40:12.860Z,18.17
2022-12-25T22:42:41.092Z,17.13
2022-12-25T22:45:10.297Z,16.52
2022-12-25T22:47:38.351Z,16.33
2022-12-25T22:50:07.172Z,16.25
2022-12-25T22:52:35.366Z,16.58
2022-12-25T22:55:04.172Z,16.48
2022-12-25T22:57:33.499Z,15.20
2022-12-25T23:00:01.768Z,16.00
2022-12-25T23:02:30.115Z,15.43
2022-12-25T23:04:58.363Z,15.00
2022-12-25T23:07:26.341Z,14.77
2022-12-25T23:09:54.283Z,15.03
2022-12-25T23:12:39.666Z,15.32
2022-12-25T23:15:10.385Z,14.43
2022-12-25T23:17:55.655Z,14.80
2022-12-25T23:20:41.051Z,16.20
2022-12-25T23:23:31.609Z,15.20
2022-12-25T23:26:08.698Z,14.57
2022-12-25T23:28:54.741Z,14.20
2022-12-25T23:31:28.010Z,15.47
2022-12-25T23:33:56.074Z,15.45
2022-12-25T23:36:24.264Z,16.40
2022-12-25T23:38:52.375Z,15.55
2022-12-25T23:41:20.590Z,15.20
2022-12-25T23:43:48.642Z,15.77
2022-12-25T23:46:16.627Z,17.85
2022-12-25T23:48:46.044Z,15.85
2022-12-25T23:51:14.025Z,15.88
2022-12-25T23:53:42.155Z,15.10
2022-12-25T23:56:10.881Z,15.95
2022-12-25T23:58:39.054Z,17.90
